Aérodrome :
LOGIN :

S'inscrire | Disclaimer

   EN    FR    IT 

 










Légende :    VFR   VFR Marginal   IFR   IFR Intensif   IFR Très Intensif
Visi : 
Plafond : 
>= 8 km
>= 3000ft
5 à 8 km
1000 à 3000 ft
1500m à 5 km
500 à 1000 ft
800 à 1500m
200 à 500 ft
< 800m
< 200 ft
Symboles :   Orages  Brouillard  Fortes neiges  Fortes précipitations  Vent > 20 kt
SIGMETs :   Divers  Orages  Givrage  Turbulence  Onde Orograph.  Cendres Volcan.






- Altitude de l'aérodrome : 267 ft


EGDR - Culdrose Navy

DERNIER METAR :
  • 181900Z 27011KT 5000 SHRA SCT007 SCT015 10/08 Q1015 NOSIG RMK GRN GRN

METARs EXPIRÉS :
  • 181850Z 26010KT 5000 -SHRA FEW007 SCT015 10/09 Q1015 TEMPO 4000 SHRA SCT007 RMK WHT TEMPO GRN
  • 181825Z 26008KT 8000 VCSH FEW007 SCT015 11/09 Q1014 TEMPO 4000 SHRA SCT007 RMK WHT TEMPO GRN
  • 181750Z 20005KT 6000 VCSH FEW007 SCT015 BKN050 11/09 Q1014 TEMPO 4000 SHRA SCT007 RMK WHT TEMPO GRN
  • 181723Z 19007KT 8000 -SHRA FEW007 BKN050 10/09 Q1015 TEMPO 4000 SHRA SCT007 RMK BLU TEMPO GRN
  • 181650Z 21006KT 8000 -SHRA FEW007 BKN050 10/08 Q1015 TEMPO 4000 SHRA SCT007 RMK BLU TEMPO GRN
  • 181626Z 22007KT 9999 FEW007 BKN050 BKN100 11/08 Q1015 TEMPO 4000 SHRA SCT007 RMK BLU TEMPO GRN

TAF AMD TAF EGDR
Valide du 18 à 15h jusqu'au 19 à 00h UTC


181547Z 1815/1824 25012KT 9999 SCT010 BKN020
TEMPO 1815/1824 26015G25KT 4000 SHRA FEW005 SCT007 BKN014CB
TEMPO 1815/1824 FEW010 SCT040



MET'MAP, la Météo Aéronautique d'un coup d'oeil ! - Copyright ORBIFLY Décembre 2007 - Disclaimer

ORBIFLY MET'MAP TEAM :

Programmation & Développement : Alexandra Zaïnal
Sur une idée originale de : Baudouin d'Aumeries
Assistance à la programmation : Marc-Olivier Méhu
Soutien technique & logistique : Manuel Goepfert

Contact : metmap@orbifly.com




SOURCES & CREDITS :

   NOAA